ADDS METAR Data INFO
IDs: Format: Raw Decoded Include TAF

Data at: 2239 UTC 22 Aug 2017

KRFI 222235Z AUTO 00000KT 10SM SCT055 SCT080 33/21 A3000 RMK AO2 T03320212
KRFI 222215Z AUTO 00000KT 10SM SCT055 BKN080 34/21 A3000 RMK AO2 T03400213
KRFI 222155Z AUTO 34003KT 10SM SCT065 34/22 A3001 RMK AO2 T03440217
KRFI 222135Z AUTO 28004KT 10SM SCT065 SCT075 34/22 A3000 RMK AO2 T03400215
KRFI 222115Z AUTO 00000KT 10SM SCT050 SCT065 34/22 A3002 RMK AO2 LTG DSNT SE T03400216
KRFI 222055Z AUTO 28003KT 10SM SCT050 BKN065 BKN080 34/22 A3003 RMK AO2 T03370217
KRFI 222035Z AUTO 00000KT 10SM BKN065 BKN080 33/21 A3003 RMK AO2 T03330211
KRFI 222015Z AUTO 00000KT 10SM SCT065 34/22 A3004 RMK AO2 T03370217
KRFI 221955Z AUTO 17004KT 10SM CLR 34/23 A3005 RMK AO2 T03390225
KRFI 221935Z AUTO 00000KT 10SM SCT048 SCT060 33/22 A3006 RMK AO2 T03250216
KRFI 221915Z AUTO 00000KT 10SM SCT047 SCT060 33/22 A3007 RMK AO2 T03290218
KRFI 221855Z AUTO 00000KT 10SM BKN043 33/22 A3007 RMK AO2 T03330221
KRFI 221835Z AUTO 00000KT 10SM BKN043 33/22 A3007 RMK AO2 T03290222
KRFI 221815Z AUTO 01003KT 10SM CLR 32/22 A3008 RMK AO2 T03200216
KRFI 221755Z AUTO 00000KT 10SM CLR 32/22 A3009 RMK AO2 T03240219 10326 20212
KRFI 221735Z AUTO 00000KT 10SM CLR 32/22 A3009 RMK AO2 T03150220
KRFI 221715Z AUTO 00000KT 10SM CLR 32/22 A3010 RMK AO2 T03150224
KRFI 221655Z AUTO 20005KT 10SM CLR 31/22 A3010 RMK AO2 T03110222
KRFI 221635Z AUTO 25004KT 10SM CLR 31/22 A3011 RMK AO2 T03090221
KRFI 221615Z AUTO 28005KT 10SM CLR 30/22 A3010 RMK AO2 T03010222
KRFI 221555Z AUTO 24004KT 10SM CLR 30/23 A3011 RMK AO2 T03000228
KRFI 221535Z AUTO 10SM CLR 29/24 A3011 RMK AO2 T02930235
KRFI 221515Z AUTO 24003KT 10SM CLR 29/24 A3011 RMK AO2 T02880238
KRFI 221455Z AUTO 25004KT 10SM CLR 28/24 A3011 RMK AO2 T02840237
KRFI 221435Z AUTO 27004KT 10SM CLR 28/24 A3010 RMK AO2 T02800242
KRFI 221415Z AUTO 26006KT 10SM CLR 27/24 A3010 RMK AO2 T02720240
KRFI 221355Z AUTO 25003KT 10SM CLR 26/24 A3009 RMK AO2 T02620239
KRFI 221335Z AUTO 10SM CLR 25/24 A3009 RMK AO2 T02500238
KRFI 221315Z AUTO 7SM CLR 24/23 A3009 RMK AO2 T02380231
KRFI 221255Z AUTO 3SM BR CLR 23/23 A3008 RMK AO2 T02300227
KRFI 221235Z AUTO 3SM BR CLR 22/22 A3008 RMK AO2 T02170215
KRFI 221215Z AUTO 3SM BR CLR 21/21 A3007 RMK AO2 T02130211
KRFI 221155Z AUTO 00000KT 1 1/4SM BR VV007 21/21 A3007 RMK AO2 70004 T02140212 10241 20210
KRFI 221135Z AUTO 00000KT 3SM BR CLR 21/21 A3007 RMK AO2 T02100207
KRFI 221115Z AUTO 00000KT 4SM BR CLR 21/21 A3007 RMK AO2 T02140210
KRFI 221055Z AUTO 00000KT 2 1/2SM BR CLR 22/21 A3006 RMK AO2 T02150213
KRFI 221035Z AUTO 00000KT 3SM BR CLR 22/21 A3006 RMK AO2 T02150211
KRFI 221015Z AUTO 00000KT 3SM BR CLR 22/21 A3006 RMK AO2 T02150211
KRFI 220955Z AUTO 00000KT 4SM BR CLR 22/22 A3006 RMK AO2 T02190216
KRFI 220935Z AUTO 00000KT 2 1/2SM BR CLR 22/22 A3006 RMK AO2 T02170215
KRFI 220915Z AUTO 00000KT 4SM BR CLR 22/22 A3006 RMK AO2 T02180215
KRFI 220855Z AUTO 00000KT 5SM BR CLR 22/22 A3007 RMK AO2 T02200216
KRFI 220835Z AUTO 00000KT 4SM BR CLR 22/22 A3007 RMK AO2 T02220219
KRFI 220815Z AUTO 00000KT 7SM CLR 23/22 A3007 RMK AO2 T02260219
KRFI 220755Z AUTO 00000KT 7SM CLR 23/22 A3008 RMK AO2 T02250221
KRFI 220735Z AUTO 00000KT 7SM CLR 23/22 A3007 RMK AO2 T02250219
KRFI 220715Z AUTO 00000KT 7SM CLR 23/22 A3007 RMK AO2 T02270220
KRFI 220655Z AUTO 00000KT 10SM CLR 23/22 A3008 RMK AO2 T02270220
KRFI 220635Z AUTO 00000KT 10SM CLR 23/22 A3008 RMK AO2 T02280219
KRFI 220615Z AUTO 00000KT 10SM CLR 23/22 A3008 RMK AO2 T02330221
KRFI 220555Z AUTO 00000KT 10SM CLR 24/22 A3009 RMK AO2 T02380222 10315 20232 403330225
KRFI 220535Z AUTO 00000KT 10SM CLR 24/22 A3009 RMK AO2 T02400221
KRFI 220515Z AUTO 00000KT 10SM CLR 23/22 A3010 RMK AO2 T02320221
KRFI 220455Z AUTO 00000KT 10SM CLR 24/23 A3010 RMK AO2 T02370225
KRFI 220435Z AUTO 00000KT 10SM CLR 24/22 A3010 RMK AO2 T02350222
KRFI 220415Z AUTO 00000KT 10SM CLR 24/22 A3011 RMK AO2 T02440222
KRFI 220355Z AUTO 00000KT 10SM CLR 24/22 A3011 RMK AO2 T02430221
KRFI 220335Z AUTO 00000KT 10SM CLR 24/22 A3011 RMK AO2 T02410223
KRFI 220315Z AUTO 00000KT 10SM CLR 24/22 A3011 RMK AO2 T02430224
KRFI 220255Z AUTO 00000KT 10SM CLR 25/23 A3010 RMK AO2 T02520227
KRFI 220235Z AUTO 00000KT 10SM CLR 26/23 A3009 RMK AO2 T02550229
KRFI 220215Z AUTO 00000KT 10SM CLR 26/23 A3009 RMK AO2 T02630228
KRFI 220155Z AUTO 00000KT 10SM CLR 26/24 A3008 RMK AO2 T02560235
KRFI 220135Z AUTO 00000KT 10SM CLR 27/23 A3008 RMK AO2 T02670228
KRFI 220115Z AUTO 00000KT 10SM CLR 27/23 A3007 RMK AO2 T02700232
KRFI 220055Z AUTO 00000KT 10SM CLR 27/24 A3006 RMK AO2 T02740239
KRFI 220035Z AUTO 00000KT 10SM CLR 28/24 A3006 RMK AO2 T02840238
KRFI 220015Z AUTO 00000KT 10SM CLR 30/24 A3005 RMK AO2 T02960235
KRFI 212355Z AUTO 12005KT 10SM CLR 32/22 A3005 RMK AO2 60004 T03170220 10333 20266
KRFI 212335Z AUTO 00000KT 10SM CLR 32/23 A3006 RMK AO2 T03200226
KRFI 212315Z AUTO 11003KT 10SM CLR 33/22 A3006 RMK AO2 T03250220
KRFI 212255Z AUTO 09005KT 10SM CLR 33/22 A3005 RMK AO2 T03290216
KRFI 212235Z AUTO 12003KT 10SM CLR 33/22 A3006 RMK AO2 T03290216
KRFI 212215Z AUTO 10005KT 10SM SCT050 33/22 A3006 RMK AO2 T03320215
KRFI 212155Z AUTO 00000KT 10SM CLR 33/23 A3007 RMK AO2 T03290226
KRFI 212135Z AUTO 00000KT 10SM CLR 32/24 A3007 RMK AO2 T03220240
KRFI 212115Z AUTO 00000KT 10SM CLR 32/24 A3008 RMK AO2 T03180244
KRFI 212055Z AUTO 00000KT 10SM SCT050 31/25 A3008 RMK AO2 P0002 60004 T03060246
KRFI 212035Z AUTO 30003KT 10SM SCT050 SCT075 29/26 A3009 RMK AO2 P0002 T02890259
KRFI 212010Z AUTO 00000KT 7SM -RA SCT030 SCT037 BKN055 27/26 A3010 RMK AO2 P0002 T02740255
KRFI 211955Z AUTO 16008G15KT 5SM RA BKN035 OVC050 27/24 A3011 RMK AO2 P0001 T02720240
KRFI 211935Z AUTO 00000KT 10SM OVC035 31/23 A3010 RMK AO2 T03080234
KRFI 211915Z AUTO 29003KT 10SM BKN035 BKN042 BKN048 31/24 A3010 RMK AO2 T03070237
KRFI 211855Z AUTO 00000KT 10SM 31/24 A3010 RMK AO2 T03070235
KRFI 211835Z AUTO 00000KT 10SM 31/23 A3011 RMK AO2 T03060233
KRFI 211815Z AUTO 00000KT 10SM 30/23 A3011 RMK AO2 T03040232
KRFI 211755Z AUTO 00000KT 10SM BKN035 BKN044 BKN050 31/23 A3012 RMK AO2 T03060231 10315 20230
KRFI 211735Z AUTO 00000KT 10SM SCT037 SCT049 BKN060 31/23 A3012 RMK AO2 T03120233
KRFI 211715Z AUTO 00000KT 10SM SCT033 SCT042 BKN050 30/23 A3013 RMK AO2 T03040226
KRFI 211655Z AUTO 26005KT 10SM BKN033 31/24 A3013 RMK AO2 T03080236
KRFI 211635Z AUTO 00000KT 10SM BKN033 OVC039 31/24 A3013 RMK AO2 T03050239
KRFI 211615Z AUTO 10SM SCT031 BKN038 30/24 A3014 RMK AO2 T02970239
KRFI 211555Z AUTO 10SM SCT022 SCT030 30/24 A3014 RMK AO2 T02970240
KRFI 211535Z AUTO 00000KT 10SM SCT020 29/24 A3014 RMK AO2 T02920243
KRFI 211515Z AUTO 23003KT 10SM SCT018 29/25 A3013 RMK AO2 T02910246
KRFI 211455Z AUTO 25004KT 10SM SCT015 29/25 A3013 RMK AO2 T02850245
KRFI 211435Z AUTO 21003KT 10SM SCT015 29/25 A3012 RMK AO2 T02870247
KRFI 211415Z AUTO 19003KT 10SM CLR 28/25 A3012 RMK AO2 T02790246
KRFI 211355Z AUTO 00000KT 10SM CLR 27/24 A3012 RMK AO2 T02690243
KRFI 211335Z AUTO 15003KT 10SM CLR 26/24 A3012 RMK AO2 T02610241
KRFI 211315Z AUTO 00000KT 10SM CLR 25/24 A3012 RMK AO2 T02500235
KRFI 211255Z AUTO 00000KT 10SM CLR 24/23 A3011 RMK AO2 T02440232
KRFI 211235Z AUTO 00000KT 10SM CLR 24/23 A3011 RMK AO2 T02360229
KRFI 211215Z AUTO 00000KT 7SM CLR 23/23 A3010 RMK AO2 T02330226
KRFI 211155Z AUTO 15003KT 7SM CLR 23/23 A3010 RMK AO2 T02300225 10246 20225
KRFI 211135Z AUTO 00000KT 7SM CLR 23/22 A3010 RMK AO2 T02280223
KRFI 211115Z AUTO 00000KT 7SM CLR 23/23 A3009 RMK AO2 T02300225
KRFI 211055Z AUTO 00000KT 10SM CLR 23/22 A3009 RMK AO2 T02300224